Time;durP1;ratioP1;P1;durP2;ratioP2;P2;SDS_P1;SDS_P2;PMS_P1;PMS_P2;Temp;Humidity;BMP_temperature;BMP_pressure;BME280_temperature;BME280_humidity;BME280_pressure;Samples;Min_cycle;Max_cycle;Signal;HPM_P1;HPM_P2
2023/04/09 00:00:36;;;;;;;73.97;21.05;;;;;;;4.28;100.00;102110.25;6077615;28;20100;-71
2023/04/09 00:03:32;;;;;;;103.10;26.00;;;;;;;4.25;100.00;102107.78;6076636;28;20056;-71
2023/04/09 00:06:27;;;;;;;77.32;21.17;;;;;;;4.25;100.00;102099.91;6077112;28;20087;-71
2023/04/09 00:09:22;;;;;;;79.13;20.23;;;;;;;4.24;100.00;102092.13;6077130;28;20033;-71
2023/04/09 00:12:18;;;;;;;128.47;23.77;;;;;;;4.32;100.00;102106.56;6080174;28;20056;-71
2023/04/09 00:15:13;;;;;;;113.80;22.03;;;;;;;4.24;100.00;102090.31;6076587;28;20037;-70
2023/04/09 00:18:08;;;;;;;82.47;20.10;;;;;;;4.22;100.00;102090.41;6076839;28;20030;-70
2023/04/09 00:21:04;;;;;;;90.17;21.00;;;;;;;4.25;100.00;102105.16;6078202;28;20026;-72
2023/04/09 00:24:00;;;;;;;72.88;19.27;;;;;;;4.27;100.00;102100.66;6076556;28;20030;-71
2023/04/09 00:26:55;;;;;;;61.70;17.63;;;;;;;4.23;100.00;102096.50;6076761;28;20418;-70
2023/04/09 00:29:53;;;;;;;65.75;17.33;;;;;;;4.13;100.00;102095.25;6076913;28;20049;-72
2023/04/09 00:32:48;;;;;;;114.10;22.08;;;;;;;4.04;100.00;102080.75;6076775;28;20064;-71
2023/04/09 00:35:44;;;;;;;45.83;16.00;;;;;;;4.02;100.00;102100.13;6076530;28;20037;-71
2023/04/09 00:38:39;;;;;;;61.72;18.63;;;;;;;4.06;100.00;102085.94;6076642;28;20025;-71
2023/04/09 00:41:34;;;;;;;54.20;18.17;;;;;;;4.32;100.00;102095.22;6076366;28;20049;-72
2023/04/09 00:44:30;;;;;;;82.13;18.63;;;;;;;4.14;100.00;102084.66;6075811;28;20038;-71
2023/04/09 00:47:27;;;;;;;78.13;18.77;;;;;;;4.09;100.00;102088.41;6076190;28;20037;-70
2023/04/09 00:50:22;;;;;;;65.38;16.15;;;;;;;4.03;100.00;102091.31;6091850;28;20025;-70
2023/04/09 00:53:17;;;;;;;65.73;14.33;;;;;;;4.01;100.00;102085.28;6075163;28;20037;-70
2023/04/09 00:56:14;;;;;;;115.63;18.73;;;;;;;3.75;100.00;102104.00;6056978;28;20258;-69
2023/04/09 00:59:09;;;;;;;63.50;16.45;;;;;;;3.85;100.00;102089.53;6098306;28;20060;-70
2023/04/09 01:02:05;;;;;;;79.68;17.55;;;;;;;3.92;100.00;102086.56;6091405;28;20120;-70
2023/04/09 01:05:00;;;;;;;47.27;16.00;;;;;;;3.84;100.00;102093.94;6075521;28;20041;-70
2023/04/09 01:08:27;;;;;;;73.93;18.53;;;;;;;3.72;100.00;102099.75;6076054;28;20021;-71
2023/04/09 01:11:37;;;;;;;50.85;15.27;;;;;;;3.73;100.00;102090.94;6091562;28;20033;-71
2023/04/09 01:14:44;;;;;;;54.92;14.98;;;;;;;4.09;100.00;102089.28;6073534;28;20038;-71
2023/04/09 01:17:52;;;;;;;63.95;18.67;;;;;;;3.75;100.00;102104.00;6064257;28;20041;-70
2023/04/09 01:20:52;;;;;;;74.93;18.73;;;;;;;3.79;100.00;102090.66;6091083;28;20038;-71
2023/04/09 01:24:12;;;;;;;53.75;15.85;;;;;;;3.78;100.00;102096.00;6090523;28;20037;-72
2023/04/09 01:27:08;;;;;;;56.75;14.70;;;;;;;3.89;100.00;102080.59;6075647;28;20061;-71
2023/04/09 01:30:04;;;;;;;39.28;14.38;;;;;;;4.05;100.00;102089.50;6057947;28;20033;-71
2023/04/09 01:32:59;;;;;;;53.53;15.43;;;;;;;4.20;100.00;102092.25;6075329;28;20033;-71
2023/04/09 01:35:56;;;;;;;46.95;14.45;;;;;;;3.80;100.00;102073.16;6057123;28;20060;-72
2023/04/09 01:38:52;;;;;;;51.03;14.15;;;;;;;3.69;100.00;102067.53;6057594;28;20029;-72
2023/04/09 01:41:48;;;;;;;38.90;12.57;;;;;;;3.89;100.00;102078.81;6090832;28;20044;-71
2023/04/09 01:44:45;;;;;;;93.70;14.25;;;;;;;3.66;100.00;102084.25;6056876;28;20029;-71
2023/04/09 01:47:40;;;;;;;42.80;12.30;;;;;;;3.79;100.00;102081.94;6057368;28;20029;-72
2023/04/09 01:50:36;;;;;;;39.53;12.93;;;;;;;3.85;100.00;102084.28;6075520;28;20141;-70
2023/04/09 01:53:31;;;;;;;80.20;14.57;;;;;;;3.43;100.00;102085.25;6089437;28;20219;-70
2023/04/09 01:56:26;;;;;;;43.67;12.83;;;;;;;3.24;100.00;102078.25;6077732;28;20033;-71
2023/04/09 01:59:22;;;;;;;35.33;11.50;;;;;;;3.05;100.00;102064.22;6074897;28;20036;-70
2023/04/09 02:02:21;;;;;;;41.20;12.87;;;;;;;3.61;100.00;102073.13;6074806;28;20041;-70
2023/04/09 02:05:17;;;;;;;50.47;14.07;;;;;;;3.46;100.00;102069.41;6055811;28;20026;-69
2023/04/09 02:08:16;;;;;;;76.65;14.25;;;;;;;3.21;100.00;102088.88;6057124;28;20053;-70
2023/04/09 02:11:13;;;;;;;48.78;12.85;;;;;;;3.29;100.00;102074.53;6090026;28;20033;-71
2023/04/09 02:14:09;;;;;;;48.38;14.43;;;;;;;3.55;100.00;102086.50;6092511;28;20033;-72
2023/04/09 02:17:05;;;;;;;35.75;11.85;;;;;;;3.49;100.00;102087.63;6089820;28;20053;-71
2023/04/09 02:20:00;;;;;;;38.55;13.40;;;;;;;3.34;100.00;102076.97;6084121;28;20045;-72
2023/04/09 02:22:55;;;;;;;39.20;12.77;;;;;;;3.66;100.00;102088.66;6074465;28;20112;-69
2023/04/09 02:25:52;;;;;;;31.93;11.90;;;;;;;3.11;100.00;102080.56;6073507;28;20040;-71
2023/04/09 02:28:47;;;;;;;39.85;11.93;;;;;;;3.05;100.00;102086.06;6074483;28;20042;-71
2023/04/09 02:31:44;;;;;;;50.07;12.07;;;;;;;3.05;100.00;102075.56;6074133;28;20564;-70
2023/04/09 02:34:39;;;;;;;47.50;12.00;;;;;;;3.08;100.00;102085.94;6073681;28;20268;-71
2023/04/09 02:37:34;;;;;;;63.10;11.23;;;;;;;2.92;100.00;102095.34;6074126;28;20533;-70
2023/04/09 02:40:30;;;;;;;77.17;12.10;;;;;;;2.75;100.00;102092.56;6073949;28;20380;-71
2023/04/09 02:43:25;;;;;;;40.97;11.90;;;;;;;2.83;100.00;102096.56;6073455;28;20264;-70
2023/04/09 02:46:20;;;;;;;73.50;16.53;;;;;;;2.85;100.00;102089.50;6073710;28;20103;-71
2023/04/09 02:49:15;;;;;;;91.27;13.83;;;;;;;2.96;100.00;102091.69;6073999;28;20030;-70
2023/04/09 02:52:11;;;;;;;59.97;13.03;;;;;;;3.08;100.00;102067.59;6073838;28;20041;-70
2023/04/09 02:55:07;;;;;;;53.20;12.93;;;;;;;3.03;100.00;102073.94;6073302;28;20026;-71
2023/04/09 02:58:02;;;;;;;79.13;13.80;;;;;;;2.87;100.00;102081.59;6073771;28;20122;-71
2023/04/09 03:00:57;;;;;;;61.57;11.50;;;;;;;2.98;100.00;102075.00;6073511;28;20040;-70
2023/04/09 03:03:52;;;;;;;45.60;13.20;;;;;;;3.10;100.00;102073.59;6072994;28;20486;-71
2023/04/09 03:06:49;;;;;;;97.27;14.27;;;;;;;2.77;100.00;102073.25;6073382;28;20036;-69
2023/04/09 03:09:44;;;;;;;158.55;19.75;;;;;;;2.60;100.00;102082.72;6073566;28;20033;-71
2023/04/09 03:12:40;;;;;;;60.33;14.00;;;;;;;2.44;100.00;102065.91;6073346;28;20543;-71
2023/04/09 03:15:35;;;;;;;75.63;13.57;;;;;;;2.40;100.00;102073.88;6072877;28;20549;-71
2023/04/09 03:18:30;;;;;;;57.23;13.20;;;;;;;2.95;100.00;102082.13;6084046;28;20279;-70
2023/04/09 03:21:26;;;;;;;51.20;12.23;;;;;;;2.91;100.00;102052.56;6085785;28;20038;-72
2023/04/09 03:24:21;;;;;;;51.38;12.70;;;;;;;2.76;100.00;102054.97;6072695;28;20094;-71
2023/04/09 03:27:16;;;;;;;47.73;14.30;;;;;;;2.62;100.00;102065.16;6073210;28;20033;-71
2023/04/09 03:30:12;;;;;;;153.73;19.63;;;;;;;2.43;100.00;102059.81;6073112;28;20437;-71
2023/04/09 03:33:07;;;;;;;82.33;15.00;;;;;;;2.51;100.00;102067.38;6073263;28;20037;-71
2023/04/09 03:36:02;;;;;;;92.83;17.07;;;;;;;2.48;100.00;102072.72;6072415;28;20033;-69
2023/04/09 03:38:59;;;;;;;84.35;16.23;;;;;;;2.53;100.00;102068.19;6073233;28;20375;-68
2023/04/09 03:41:56;;;;;;;58.20;13.65;;;;;;;2.72;100.00;102072.59;6073061;28;20037;-70
2023/04/09 03:44:55;;;;;;;79.60;15.35;;;;;;;2.82;100.00;102075.69;6072342;28;20124;-73
2023/04/09 03:47:50;;;;;;;91.28;16.02;;;;;;;2.50;100.00;102055.22;6073110;28;20073;-70
2023/04/09 03:50:45;;;;;;;63.03;16.35;;;;;;;3.02;100.00;102053.91;6073451;28;20044;-70
2023/04/09 03:53:41;;;;;;;106.80;20.33;;;;;;;2.82;100.00;102073.06;6072509;28;20044;-70
2023/04/09 03:56:36;;;;;;;104.22;16.90;;;;;;;2.94;100.00;102075.16;6072999;28;20268;-69
2023/04/09 03:59:31;;;;;;;62.00;14.33;;;;;;;2.89;100.00;102064.03;6072658;28;20037;-70
2023/04/09 04:02:30;;;;;;;129.50;15.40;;;;;;;2.87;100.00;102055.41;6072960;28;20593;-72
2023/04/09 04:05:25;;;;;;;39.42;12.27;;;;;;;3.09;100.00;102061.44;6072286;28;20368;-69
2023/04/09 04:08:20;;;;;;;97.63;15.57;;;;;;;3.07;100.00;102058.03;6072956;28;20033;-69
2023/04/09 04:11:15;;;;;;;48.47;13.27;;;;;;;2.99;100.00;102078.44;6072805;28;20767;-70
2023/04/09 04:14:11;;;;;;;72.67;15.43;;;;;;;2.90;100.00;102069.22;6071906;28;20075;-69
2023/04/09 04:17:06;;;;;;;103.37;18.83;;;;;;;2.81;100.00;102061.75;6072666;28;20025;-70
2023/04/09 04:20:01;;;;;;;76.40;15.67;;;;;;;2.84;100.00;102066.84;6082151;28;20117;-70
2023/04/09 04:22:57;;;;;;;50.65;14.27;;;;;;;3.00;100.00;102077.53;6072868;28;20026;-69
2023/04/09 04:25:52;;;;;;;64.53;15.90;;;;;;;2.89;100.00;102064.03;6071963;28;20474;-70
2023/04/09 04:28:48;;;;;;;88.07;17.88;;;;;;;2.84;100.00;102060.75;6073901;28;20032;-69
2023/04/09 04:31:43;;;;;;;51.33;15.43;;;;;;;2.95;100.00;102084.75;6077091;28;20092;-69
2023/04/09 04:34:38;;;;;;;61.63;15.03;;;;;;;2.91;100.00;102070.91;6076131;28;20105;-70
2023/04/09 04:37:33;;;;;;;66.27;14.40;;;;;;;2.90;100.00;102082.31;6077118;28;20672;-69
2023/04/09 04:40:29;;;;;;;69.93;15.93;;;;;;;3.04;100.00;102089.59;6076534;28;20039;-70
2023/04/09 04:43:24;;;;;;;47.45;14.52;;;;;;;2.92;100.00;102064.75;6075869;28;20633;-70
2023/04/09 04:46:20;;;;;;;48.53;15.77;;;;;;;2.97;100.00;102088.13;6076409;28;20428;-69
2023/04/09 04:49:15;;;;;;;47.92;16.27;;;;;;;2.97;100.00;102085.53;6076477;28;20036;-70
2023/04/09 04:52:10;;;;;;;52.77;16.87;;;;;;;3.03;100.00;102093.13;6076749;28;20033;-69
2023/04/09 04:55:06;;;;;;;90.90;20.30;;;;;;;2.92;100.00;102072.63;6075428;28;20037;-70
2023/04/09 04:58:01;;;;;;;109.53;26.90;;;;;;;3.05;100.00;102088.66;6076328;28;20029;-70
2023/04/09 05:00:57;;;;;;;49.55;16.48;;;;;;;3.09;100.00;102094.66;6076399;28;20041;-72
2023/04/09 05:03:52;;;;;;;47.40;16.97;;;;;;;2.98;100.00;102084.63;6075424;28;20483;-71
2023/04/09 05:06:47;;;;;;;65.03;16.77;;;;;;;3.00;100.00;102088.88;6076135;28;20375;-71
2023/04/09 05:09:43;;;;;;;47.97;14.67;;;;;;;3.04;100.00;102084.38;6075965;28;20038;-72
2023/04/09 05:12:38;;;;;;;40.95;15.95;;;;;;;3.19;100.00;102094.19;6076008;28;20257;-69
2023/04/09 05:15:37;;;;;;;61.07;16.27;;;;;;;3.13;100.00;102098.81;6075281;28;20041;-70
2023/04/09 05:18:33;;;;;;;57.20;17.15;;;;;;;3.16;100.00;102099.56;6075661;28;20025;-71
2023/04/09 05:21:28;;;;;;;43.03;15.17;;;;;;;3.13;100.00;102083.09;6075869;28;20040;-71
2023/04/09 05:24:23;;;;;;;56.23;16.00;;;;;;;3.39;100.00;102107.31;6074982;28;20500;-71
2023/04/09 05:27:20;;;;;;;41.07;15.87;;;;;;;3.21;100.00;102102.84;6075850;28;20100;-71
2023/04/09 05:30:16;;;;;;;42.55;15.80;;;;;;;3.13;100.00;102085.72;6075738;28;20119;-71
2023/04/09 05:33:11;;;;;;;43.77;15.10;;;;;;;3.34;100.00;102109.25;6075478;28;20042;-71
2023/04/09 05:36:07;;;;;;;42.43;15.03;;;;;;;3.45;100.00;102106.19;6075414;28;20052;-71
2023/04/09 05:39:02;;;;;;;42.95;16.08;;;;;;;3.46;100.00;102092.16;6096971;28;20033;-70
2023/04/09 05:41:57;;;;;;;38.93;14.60;;;;;;;3.60;100.00;102090.63;6074880;28;20029;-71
2023/04/09 05:44:52;;;;;;;36.00;13.23;;;;;;;3.74;100.00;102102.28;6074798;28;20037;-71
2023/04/09 05:47:48;;;;;;;33.90;13.13;;;;;;;3.70;100.00;102098.06;6075129;28;20052;-71
2023/04/09 05:50:51;;;;;;;42.57;14.87;;;;;;;3.76;100.00;102095.19;6075769;28;20439;-71
2023/04/09 05:53:46;;;;;;;39.13;16.40;;;;;;;3.72;100.00;102085.75;6074508;28;20060;-71
2023/04/09 05:56:42;;;;;;;35.67;14.67;;;;;;;3.94;100.00;102099.63;6074652;28;20041;-72
2023/04/09 05:59:37;;;;;;;33.63;13.77;;;;;;;4.08;100.00;102086.69;6074915;28;20111;-70
2023/04/09 06:02:32;;;;;;;37.20;14.87;;;;;;;4.22;100.00;102100.03;6074858;28;20025;-70
2023/04/09 06:05:28;;;;;;;35.47;13.98;;;;;;;4.00;100.00;102105.44;6074138;28;20536;-71
2023/04/09 06:08:23;;;;;;;36.65;13.13;;;;;;;4.10;100.00;102095.38;6074625;28;20116;-70
2023/04/09 06:11:20;;;;;;;31.97;12.77;;;;;;;4.37;100.00;102098.47;6074897;28;20033;-69
2023/04/09 06:14:16;;;;;;;37.47;14.25;;;;;;;4.27;100.00;102089.34;6073961;28;20041;-69
2023/04/09 06:17:12;;;;;;;36.72;13.43;;;;;;;4.29;100.00;102101.47;6074530;28;20437;-69
2023/04/09 06:20:08;;;;;;;32.90;13.57;;;;;;;4.43;100.00;102098.19;6074635;28;20048;-70
2023/04/09 06:23:04;;;;;;;31.70;12.70;;;;;;;4.69;100.00;102114.41;6074261;28;20029;-70
2023/04/09 06:26:00;;;;;;;37.05;14.23;;;;;;;5.03;100.00;102110.13;6073664;28;20160;-71
2023/04/09 06:28:55;;;;;;;30.48;11.60;;;;;;;5.34;100.00;102111.13;6074262;28;20466;-70
2023/04/09 06:31:50;;;;;;;35.03;11.93;;;;;;;5.27;100.00;102101.00;6074073;28;20470;-70
2023/04/09 06:34:47;;;;;;;29.57;10.60;;;;;;;5.29;100.00;102117.56;6078126;28;20083;-70
2023/04/09 06:37:42;;;;;;;32.97;12.90;;;;;;;5.10;100.00;102108.88;6073943;28;20044;-72
2023/04/09 06:40:38;;;;;;;27.13;11.93;;;;;;;5.11;100.00;102114.06;6074001;28;20131;-71
2023/04/09 06:43:33;;;;;;;34.22;12.15;;;;;;;4.97;100.00;102118.31;6073189;28;20091;-72
2023/04/09 06:46:28;;;;;;;33.53;12.70;;;;;;;5.05;100.00;102113.53;6074045;28;20043;-70
2023/04/09 06:49:24;;;;;;;28.03;12.10;;;;;;;5.08;100.00;102110.75;6073841;28;20032;-70
2023/04/09 06:52:19;;;;;;;31.23;12.23;;;;;;;5.17;100.00;102118.16;6072856;28;20025;-70
2023/04/09 06:55:14;;;;;;;32.40;11.57;;;;;;;5.32;100.00;102107.75;6073253;28;20041;-69
2023/04/09 06:58:10;;;;;;;34.63;13.90;;;;;;;5.37;100.00;102107.50;6073685;28;20625;-72
2023/04/09 07:01:05;;;;;;;32.63;12.83;;;;;;;5.38;100.00;102111.84;6073519;28;20037;-70
2023/04/09 07:04:00;;;;;;;33.08;13.20;;;;;;;5.39;100.00;102105.63;6073134;28;20780;-70
2023/04/09 07:06:58;;;;;;;34.27;12.43;;;;;;;5.46;100.00;102106.19;6073174;28;20033;-71
2023/04/09 07:09:53;;;;;;;37.08;13.20;;;;;;;5.72;100.00;102124.94;6073631;28;20030;-68
2023/04/09 07:12:48;;;;;;;36.93;13.90;;;;;;;5.72;100.00;102114.41;6073118;28;20044;-72
2023/04/09 07:15:43;;;;;;;36.10;12.90;;;;;;;5.86;100.00;102127.72;6072965;28;20041;-70
2023/04/09 07:18:39;;;;;;;37.10;12.67;;;;;;;5.81;100.00;102113.94;6073525;28;20427;-70
2023/04/09 07:21:34;;;;;;;30.80;12.53;;;;;;;5.90;100.00;102131.88;6073224;28;20342;-71
2023/04/09 07:24:30;;;;;;;42.60;14.50;;;;;;;5.75;100.00;102122.16;6072810;28;20034;-71
2023/04/09 07:27:26;;;;;;;40.08;14.13;;;;;;;5.73;100.00;102123.16;6073085;28;20029;-71
2023/04/09 07:30:22;;;;;;;33.30;12.57;;;;;;;5.69;100.00;102133.00;6073496;28;20060;-71
2023/04/09 07:33:17;;;;;;;38.60;13.10;;;;;;;5.59;100.00;102126.50;6075406;28;20078;-71
2023/04/09 07:36:12;;;;;;;38.30;13.57;;;;;;;5.69;100.00;102130.34;6082907;28;20035;-72
2023/04/09 07:39:07;;;;;;;38.50;12.80;;;;;;;5.75;100.00;102127.41;6073232;28;20041;-72
2023/04/09 07:42:04;;;;;;;40.33;13.17;;;;;;;5.72;100.00;102132.84;6073030;28;20569;-71
2023/04/09 07:44:59;;;;;;;46.40;13.63;;;;;;;5.57;100.00;102115.19;6072691;28;20033;-70
2023/04/09 07:47:54;;;;;;;31.20;12.57;;;;;;;5.60;100.00;102138.72;6072966;28;20029;-71
2023/04/09 07:50:50;;;;;;;39.40;13.20;;;;;;;5.83;100.00;102138.38;6072847;28;20081;-71
2023/04/09 07:53:45;;;;;;;37.88;12.95;;;;;;;5.88;100.00;102125.00;6072518;28;20037;-70
2023/04/09 07:56:40;;;;;;;38.47;14.00;;;;;;;6.08;100.00;102119.53;6091850;28;20119;-71
2023/04/09 07:59:36;;;;;;;34.00;12.53;;;;;;;5.59;100.00;102113.34;6077364;28;20030;-71
2023/04/09 08:02:31;;;;;;;38.43;12.87;;;;;;;5.64;100.00;102124.50;6072880;28;20044;-71
2023/04/09 08:05:27;;;;;;;39.63;13.57;;;;;;;5.64;100.00;102118.38;6076513;28;20779;-70
2023/04/09 08:08:22;;;;;;;42.78;15.15;;;;;;;5.86;100.00;102140.03;6077572;28;20046;-72
2023/04/09 08:11:23;;;;;;;35.83;12.27;;;;;;;5.83;100.00;102130.50;6077066;28;20045;-71
2023/04/09 08:14:19;;;;;;;39.97;12.60;;;;;;;5.86;100.00;102137.41;6078671;28;20474;-71
2023/04/09 08:17:14;;;;;;;41.97;13.50;;;;;;;5.90;100.00;102126.63;6077231;28;20072;-70
2023/04/09 08:20:10;;;;;;;38.28;12.55;;;;;;;6.14;100.00;102140.28;6077384;28;20074;-70
2023/04/09 08:23:05;;;;;;;35.20;12.40;;;;;;;6.06;100.00;102126.66;6077233;28;20041;-71
2023/04/09 08:26:00;;;;;;;37.47;10.77;;;;;;;6.28;100.00;102148.25;6076094;28;20041;-71
2023/04/09 08:28:56;;;;;;;41.27;13.83;;;;;;;6.26;100.00;102134.34;6077118;28;20585;-71
2023/04/09 08:31:51;;;;;;;37.88;14.02;;;;;;;6.20;100.00;102134.66;6076622;28;20026;-71
2023/04/09 08:34:46;;;;;;;39.73;13.00;;;;;;;6.25;100.00;102142.34;6076115;28;20040;-72
2023/04/09 08:37:42;;;;;;;34.47;12.07;;;;;;;6.20;100.00;102107.47;6076807;28;20060;-71
2023/04/09 08:40:37;;;;;;;40.55;14.75;;;;;;;6.41;100.00;102138.75;6076500;28;20064;-70
2023/04/09 08:43:34;;;;;;;35.42;12.77;;;;;;;6.38;100.00;102127.56;6076063;28;20040;-72
2023/04/09 08:46:29;;;;;;;41.03;14.07;;;;;;;6.42;100.00;102129.91;6058513;28;20040;-71
2023/04/09 08:49:24;;;;;;;35.73;12.93;;;;;;;6.54;100.00;102141.56;6076688;28;20483;-70
2023/04/09 08:52:30;;;;;;;37.85;12.48;;;;;;;6.64;100.00;102134.84;6076533;28;20076;-70
2023/04/09 08:55:25;;;;;;;44.58;14.13;;;;;;;6.57;100.00;102149.31;6091118;28;20025;-69
2023/04/09 08:58:21;;;;;;;31.70;13.40;;;;;;;6.55;100.00;102132.72;6076610;28;20434;-70
2023/04/09 09:01:24;;;;;;;42.60;14.93;;;;;;;6.66;100.00;102146.16;6076031;28;20033;-71
2023/04/09 09:04:20;;;;;;;36.28;12.98;;;;;;;6.58;100.00;102132.53;6075605;28;20040;-70
2023/04/09 09:07:16;;;;;;;34.63;13.27;;;;;;;6.48;100.00;102134.88;6075728;28;20022;-71
2023/04/09 09:10:11;;;;;;;38.60;13.02;;;;;;;6.49;100.00;102152.38;6076061;28;20036;-69
2023/04/09 09:13:32;;;;;;;35.40;13.90;;;;;;;6.47;100.00;102142.84;6080842;28;20041;-71
2023/04/09 09:16:28;;;;;;;42.50;13.75;;;;;;;6.63;100.00;102132.31;6071078;28;20041;-70
2023/04/09 09:19:23;;;;;;;34.75;13.95;;;;;;;6.79;100.00;102144.56;6075920;28;20393;-71
2023/04/09 09:22:18;;;;;;;35.63;13.32;;;;;;;6.73;100.00;102130.84;6075618;28;20493;-71
2023/04/09 09:25:14;;;;;;;42.40;13.40;;;;;;;6.95;100.00;102118.16;6075050;28;20040;-71
2023/04/09 09:28:11;;;;;;;37.95;13.32;;;;;;;7.00;100.00;102127.50;6075466;28;20288;-71
2023/04/09 09:31:07;;;;;;;34.97;12.65;;;;;;;6.90;100.00;102130.75;6075641;28;20466;-71
2023/04/09 09:34:07;;;;;;;36.35;13.43;;;;;;;6.88;100.00;102128.19;6075233;28;20021;-71
2023/04/09 09:37:26;;;;;;;32.22;12.98;;;;;;;7.17;100.00;102139.72;6075727;28;20032;-71
2023/04/09 09:40:30;;;;;;;41.35;15.77;;;;;;;6.98;100.00;102132.03;6075448;28;20025;-71
2023/04/09 09:43:39;;;;;;;38.83;15.18;;;;;;;6.58;100.00;102129.91;6074482;28;20040;-71
2023/04/09 09:46:37;;;;;;;40.35;13.85;;;;;;;6.83;100.00;102124.97;6075194;28;20042;-71
2023/04/09 09:49:32;;;;;;;46.58;15.63;;;;;;;6.94;100.00;102127.00;6082253;28;20497;-72
2023/04/09 09:52:29;;;;;;;36.03;13.63;;;;;;;7.10;100.00;102136.56;6079669;28;20069;-71
2023/04/09 09:55:26;;;;;;;36.88;14.27;;;;;;;7.33;100.00;102126.47;6074116;28;20546;-70
2023/04/09 09:58:25;;;;;;;40.72;13.98;;;;;;;7.78;100.00;102127.19;6090260;28;20043;-71
2023/04/09 10:01:23;;;;;;;30.20;12.38;;;;;;;7.95;98.60;102106.81;6090322;28;20037;-72
2023/04/09 10:04:19;;;;;;;37.30;12.95;;;;;;;8.25;96.50;102121.63;6089292;28;20175;-70
2023/04/09 10:07:14;;;;;;;37.28;13.93;;;;;;;7.89;94.32;102121.25;6056962;28;20029;-72
2023/04/09 10:10:10;;;;;;;35.63;14.77;;;;;;;7.97;94.07;102113.72;6074627;28;20033;-71
2023/04/09 10:13:06;;;;;;;37.00;15.30;;;;;;;7.75;96.20;102116.81;6080686;28;20026;-70
2023/04/09 10:16:02;;;;;;;36.33;14.35;;;;;;;7.91;95.86;102111.44;6072276;28;20462;-70
2023/04/09 10:18:58;;;;;;;39.15;13.50;;;;;;;8.24;95.61;102117.28;6057187;28;20088;-71
2023/04/09 10:21:58;;;;;;;31.45;12.68;;;;;;;8.26;93.86;102111.91;6074403;28;20033;-71
2023/04/09 10:24:54;;;;;;;33.10;12.93;;;;;;;8.20;92.81;102107.84;6088729;28;20048;-71
2023/04/09 10:27:59;;;;;;;33.03;13.55;;;;;;;8.11;93.89;102105.78;6056395;28;20025;-71
2023/04/09 10:30:55;;;;;;;32.72;14.18;;;;;;;8.09;93.49;102120.03;6073960;28;20096;-71
2023/04/09 10:33:50;;;;;;;35.97;13.30;;;;;;;7.69;95.03;102114.53;6073631;28;20475;-70
2023/04/09 10:36:52;;;;;;;32.08;13.70;;;;;;;7.84;95.86;102104.84;6073983;28;20108;-71
2023/04/09 10:39:49;;;;;;;38.00;13.35;;;;;;;8.79;94.56;102096.09;6074185;28;20474;-71
2023/04/09 10:42:46;;;;;;;33.17;12.45;;;;;;;10.10;86.22;102093.25;6073814;28;20037;-72
2023/04/09 10:45:41;;;;;;;29.92;11.75;;;;;;;10.00;80.56;102082.44;6088404;28;20033;-71
2023/04/09 10:48:37;;;;;;;25.63;11.07;;;;;;;9.76;77.48;102089.47;6075817;28;20501;-71
2023/04/09 10:51:37;;;;;;;28.50;12.33;;;;;;;9.70;75.26;102091.72;6078335;28;20264;-72
2023/04/09 10:54:32;;;;;;;;;;;;;;;9.95;76.70;102086.38;6073415;28;20041;-72
2023/04/09 10:57:28;;;;;;;30.70;13.25;;;;;;;9.67;74.21;102083.97;6073380;28;19909;-72
2023/04/09 11:00:23;;;;;;;27.60;11.40;;;;;;;9.91;74.53;102082.25;6073470;28;20029;-71
2023/04/09 11:03:26;;;;;;;30.87;12.60;;;;;;;9.63;74.31;102083.31;6073303;28;20041;-71
2023/04/09 11:06:21;;;;;;;30.23;11.90;;;;;;;10.22;73.64;102075.66;6073229;28;20095;-69
2023/04/09 11:09:16;;;;;;;27.73;11.50;;;;;;;9.93;74.26;102082.97;6073532;28;20041;-71
2023/04/09 11:12:11;;;;;;;28.67;12.80;;;;;;;9.93;74.54;102086.47;6073187;28;20033;-68
2023/04/09 11:15:15;;;;;;;30.60;12.17;;;;;;;10.27;74.10;102060.25;6072750;28;20494;-70
2023/04/09 11:18:21;;;;;;;28.13;11.80;;;;;;;10.69;72.86;102063.25;6073449;28;20021;-70
2023/04/09 11:21:16;;;;;;;28.60;11.88;;;;;;;10.88;71.49;102059.22;6073267;28;20501;-70
2023/04/09 11:24:12;;;;;;;26.20;12.53;;;;;;;11.35;70.70;102061.81;6055035;28;20156;-73
2023/04/09 11:27:07;;;;;;;29.50;12.27;;;;;;;11.44;68.00;102046.97;6072783;28;20292;-73
2023/04/09 11:30:03;;;;;;;28.58;13.13;;;;;;;11.67;66.95;102053.97;6077348;28;20112;-70
2023/04/09 11:32:59;;;;;;;31.52;13.77;;;;;;;11.50;66.44;102047.31;6073099;28;20442;-70
2023/04/09 11:35:55;;;;;;;31.38;14.85;;;;;;;11.18;67.10;102036.53;6072394;28;20474;-71
2023/04/09 11:38:50;;;;;;;26.88;13.93;;;;;;;11.21;66.73;102054.88;6074748;28;20076;-71
2023/04/09 11:41:45;;;;;;;32.07;13.13;;;;;;;10.85;68.22;102064.75;6078267;28;20045;-70
2023/04/09 11:44:41;;;;;;;31.20;13.07;;;;;;;10.75;69.13;102041.59;6077269;28;20757;-70
2023/04/09 11:47:38;;;;;;;32.37;13.03;;;;;;;10.58;69.14;102057.91;6077717;28;20041;-72
2023/04/09 11:50:33;;;;;;;29.80;13.05;;;;;;;10.88;68.03;102046.81;6077984;28;20025;-70
2023/04/09 11:53:30;;;;;;;27.65;13.35;;;;;;;10.57;68.49;102045.59;6059454;28;20048;-70
2023/04/09 11:56:28;;;;;;;27.70;13.20;;;;;;;10.72;65.80;102054.22;6077454;28;20052;-70
2023/04/09 11:59:23;;;;;;;32.40;14.18;;;;;;;10.63;65.42;102049.59;6077584;28;20037;-71
2023/04/09 12:02:18;;;;;;;34.20;14.03;;;;;;;10.56;66.37;102057.19;6077975;28;20172;-69
2023/04/09 12:05:25;;;;;;;32.87;14.13;;;;;;;10.35;67.88;102055.25;6076995;28;20311;-69
2023/04/09 12:08:26;;;;;;;30.08;12.70;;;;;;;10.45;66.77;102056.25;6064641;28;20033;-70
2023/04/09 12:11:27;;;;;;;30.95;13.40;;;;;;;10.75;66.53;102049.56;6077105;28;20030;-71
2023/04/09 12:14:22;;;;;;;27.95;13.80;;;;;;;10.54;66.98;102045.00;6073664;28;20034;-70
2023/04/09 12:17:19;;;;;;;28.65;13.45;;;;;;;10.73;65.25;102050.63;6076785;28;20036;-70
2023/04/09 12:20:32;;;;;;;28.90;11.73;;;;;;;10.57;66.43;102044.78;6077034;28;20112;-71
2023/04/09 12:23:30;;;;;;;32.03;13.27;;;;;;;10.38;67.80;102039.13;6076026;28;20037;-70
2023/04/09 12:26:25;;;;;;;29.50;11.57;;;;;;;10.72;66.90;102036.50;6077032;28;20386;-71
2023/04/09 12:29:20;;;;;;;29.37;11.93;;;;;;;11.41;65.33;102040.09;6076731;28;20037;-72
2023/04/09 12:32:16;;;;;;;27.57;12.30;;;;;;;11.56;63.63;102036.22;6099541;28;20090;-70
2023/04/09 12:35:12;;;;;;;29.27;11.43;;;;;;;11.88;62.79;102025.72;6076409;28;20303;-70
2023/04/09 12:38:07;;;;;;;27.10;12.30;;;;;;;12.47;61.69;102029.72;6076459;28;20418;-71
2023/04/09 12:41:03;;;;;;;30.87;12.93;;;;;;;12.55;59.58;102029.13;6076667;28;20033;-72
2023/04/09 12:43:58;;;;;;;28.77;13.97;;;;;;;12.13;60.89;102024.63;6075631;28;20275;-72
2023/04/09 12:46:54;;;;;;;24.48;12.18;;;;;;;13.03;58.15;102001.03;6076656;28;20769;-71
2023/04/09 12:49:50;;;;;;;26.47;11.37;;;;;;;14.08;54.79;102022.03;6076622;28;20037;-72
2023/04/09 12:52:45;;;;;;;22.85;11.57;;;;;;;14.62;53.62;102004.75;6076426;28;20034;-71
2023/04/09 12:55:40;;;;;;;24.77;12.25;;;;;;;12.78;55.14;102014.72;6075880;28;20474;-72
2023/04/09 12:58:36;;;;;;;25.10;12.23;;;;;;;12.37;57.66;102014.63;6076262;28;20041;-71
2023/04/09 13:01:32;;;;;;;25.25;11.82;;;;;;;12.57;58.39;102021.84;6076414;28;20029;-71
2023/04/09 13:04:27;;;;;;;24.20;12.23;;;;;;;12.00;59.24;102010.63;6075680;28;20129;-72
2023/04/09 13:07:24;;;;;;;28.60;11.97;;;;;;;12.28;59.87;102013.59;6075886;28;20033;-70
2023/04/09 13:10:20;;;;;;;26.15;11.60;;;;;;;12.63;58.83;102002.72;6076219;28;20035;-71
2023/04/09 13:13:16;;;;;;;25.85;11.23;;;;;;;12.30;59.32;101989.53;6075424;28;20041;-71
2023/04/09 13:16:12;;;;;;;24.60;11.52;;;;;;;12.70;58.34;101987.91;6074551;28;20045;-70
2023/04/09 13:19:08;;;;;;;19.70;9.00;;;;;;;13.08;56.41;101982.88;6075252;28;20482;-70
2023/04/09 13:22:06;;;;;;;25.90;11.43;;;;;;;13.23;55.57;101977.22;6075040;28;20303;-73